Time,TemperatureF,DewpointF,PressureIn,WindDirection,WindDirectionDegrees,WindSpeedMPH,WindSpeedGustMPH,Humidity,HourlyPrecipIn,Conditions,Clouds,dailyrainin,SolarRadiationWatts/m^2,SoftwareType,DateUTC
2013-05-18 00:00:00,67.2,57.0,30.07,ESE,114,0.0,6.0,70,0.00,,,0.00,0,HR-IXPWINDi_r2_v1.2.,2013-05-18 04:00:00,
2013-05-18 00:01:00,67.1,56.9,30.07,ESE,114,0.0,6.0,70,0.00,,,0.00,0,HR-IXPWINDi_r2_v1.2.,2013-05-18 04:01:00,
2013-05-18 00:06:00,67.1,57.3,30.07,SE,139,0.0,5.0,71,0.00,,,0.00,0,HR-IXPWINDi_r2_v1.2.,2013-05-18 04:06:00,
2013-05-18 00:11:00,67.9,58.1,30.07,South,172,0.0,5.0,71,0.00,,,0.00,0,HR-IXPWINDi_r2_v1.2.,2013-05-18 04:11:00,
2013-05-18 00:16:00,68.5,57.9,30.07,ESE,112,4.0,6.0,69,0.00,,,0.00,0,HR-IXPWINDi_r2_v1.2.,2013-05-18 04:16:00,
2013-05-18 00:22:00,68.8,58.2,30.07,SSE,154,4.0,7.0,69,0.00,,,0.00,0,HR-IXPWINDi_r2_v1.2.,2013-05-18 04:22:00,
2013-05-18 00:27:00,68.6,58.0,30.07,ESE,113,0.0,7.0,69,0.00,,,0.00,0,HR-IXPWINDi_r2_v1.2.,2013-05-18 04:27:00,
2013-05-18 00:32:00,68.0,58.2,30.07,ESE,115,1.0,7.0,71,0.00,,,0.00,0,HR-IXPWINDi_r2_v1.2.,2013-05-18 04:32:00,
2013-05-18 00:37:00,68.5,58.7,30.07,SSE,162,4.0,7.0,71,0.00,,,0.00,0,HR-IXPWINDi_r2_v1.2.,2013-05-18 04:37:00,
2013-05-18 00:42:00,68.8,58.2,30.07,SE,141,0.0,7.0,69,0.00,,,0.00,0,HR-IXPWINDi_r2_v1.2.,2013-05-18 04:42:00,
2013-05-18 00:47:00,67.1,57.7,30.07,WNW,294,4.0,5.0,72,0.00,,,0.00,0,HR-IXPWINDi_r2_v1.2.,2013-05-18 04:47:00,
2013-05-18 00:53:00,65.9,57.7,30.07,NNW,340,0.0,4.0,75,0.00,,,0.00,0,HR-IXPWINDi_r2_v1.2.,2013-05-18 04:53:00,
2013-05-18 00:58:00,64.8,57.4,30.07,NNE,12,0.0,4.0,77,0.00,,,0.00,0,HR-IXPWINDi_r2_v1.2.,2013-05-18 04:58:00,
2013-05-18 01:03:00,64.7,57.6,30.07,ESE,119,0.0,4.0,78,0.00,,,0.00,0,HR-IXPWINDi_r2_v1.2.,2013-05-18 05:03:00,
2013-05-18 01:08:00,63.8,57.4,30.06,NNE,15,0.0,4.0,80,0.00,,,0.00,0,HR-IXPWINDi_r2_v1.2.,2013-05-18 05:08:00,
2013-05-18 01:13:00,63.5,57.2,30.06,NE,40,0.0,4.0,80,0.00,,,0.00,0,HR-IXPWINDi_r2_v1.2.,2013-05-18 05:13:00,
2013-05-18 01:18:00,63.2,57.2,30.06,NNW,341,3.0,4.0,81,0.00,,,0.00,0,HR-IXPWINDi_r2_v1.2.,2013-05-18 05:18:00,
2013-05-18 01:23:00,63.3,57.3,30.06,North,355,0.0,5.0,81,0.00,,,0.00,0,HR-IXPWINDi_r2_v1.2.,2013-05-18 05:23:00,
2013-05-18 01:29:00,63.0,57.0,30.06,NNE,28,0.0,5.0,81,0.00,,,0.00,0,HR-IXPWINDi_r2_v1.2.,2013-05-18 05:29:00,
2013-05-18 01:35:00,63.4,57.4,30.06,NNE,28,0.0,3.0,81,0.00,,,0.00,0,HR-IXPWINDi_r2_v1.2.,2013-05-18 05:35:00,
2013-05-18 01:40:00,63.9,57.5,30.06,NNE,28,0.0,3.0,80,0.00,,,0.00,0,HR-IXPWINDi_r2_v1.2.,2013-05-18 05:40:00,
2013-05-18 01:45:00,62.9,56.9,30.05,NE,53,0.0,3.0,81,0.00,,,0.00,0,HR-IXPWINDi_r2_v1.2.,2013-05-18 05:45:00,
2013-05-18 01:50:00,62.0,56.7,30.06,ESE,111,0.0,4.0,83,0.00,,,0.00,0,HR-IXPWINDi_r2_v1.2.,2013-05-18 05:50:00,
2013-05-18 01:56:00,62.2,56.9,30.06,ESE,111,0.0,4.0,83,0.00,,,0.00,0,HR-IXPWINDi_r2_v1.2.,2013-05-18 05:56:00,
2013-05-18 02:01:00,62.1,56.8,30.06,ESE,111,0.0,1.0,83,0.00,,,0.00,0,HR-IXPWINDi_r2_v1.2.,2013-05-18 06:01:00,
2013-05-18 02:06:00,61.9,56.6,30.05,ESE,111,2.0,2.0,83,0.00,,,0.00,0,HR-IXPWINDi_r2_v1.2.,2013-05-18 06:06:00,
2013-05-18 02:11:00,61.8,56.8,30.05,ESE,111,0.0,2.0,84,0.00,,,0.00,0,HR-IXPWINDi_r2_v1.2.,2013-05-18 06:11:00,
2013-05-18 02:16:00,61.6,57.0,30.05,ESE,111,0.0,2.0,85,0.00,,,0.00,0,HR-IXPWINDi_r2_v1.2.,2013-05-18 06:16:00,
2013-05-18 02:21:00,61.8,57.2,30.05,ESE,111,0.0,2.0,85,0.00,,,0.00,0,HR-IXPWINDi_r2_v1.2.,2013-05-18 06:21:00,
2013-05-18 02:27:00,61.1,56.5,30.05,ESE,111,0.0,2.0,85,0.00,,,0.00,0,HR-IXPWINDi_r2_v1.2.,2013-05-18 06:27:00,
2013-05-18 02:32:00,60.5,56.5,30.05,ESE,111,0.0,2.0,87,0.00,,,0.00,0,HR-IXPWINDi_r2_v1.2.,2013-05-18 06:32:00,
2013-05-18 02:37:00,60.5,56.5,30.04,ESE,111,0.0,2.0,87,0.00,,,0.00,0,HR-IXPWINDi_r2_v1.2.,2013-05-18 06:37:00,
2013-05-18 02:42:00,60.2,56.6,30.04,ESE,111,1.0,2.0,88,0.00,,,0.00,0,HR-IXPWINDi_r2_v1.2.,2013-05-18 06:42:00,
2013-05-18 02:48:00,60.2,56.6,30.04,ESE,111,1.0,2.0,88,0.00,,,0.00,0,HR-IXPWINDi_r2_v1.2.,2013-05-18 06:48:00,
2013-05-18 02:53:00,60.5,56.5,30.03,ESE,113,4.0,4.0,87,0.00,,,0.00,0,HR-IXPWINDi_r2_v1.2.,2013-05-18 06:53:00,
2013-05-18 02:58:00,60.7,56.7,30.03,ESE,117,0.0,4.0,87,0.00,,,0.00,0,HR-IXPWINDi_r2_v1.2.,2013-05-18 06:58:00,
2013-05-18 03:03:00,60.9,56.9,30.04,ESE,117,0.0,4.0,87,0.00,,,0.00,0,HR-IXPWINDi_r2_v1.2.,2013-05-18 07:03:00,
2013-05-18 03:08:00,61.0,57.0,30.03,ESE,117,0.0,1.0,87,0.00,,,0.00,0,HR-IXPWINDi_r2_v1.2.,2013-05-18 07:08:00,
2013-05-18 03:13:00,61.0,57.0,30.03,ESE,117,0.0,2.0,87,0.00,,,0.00,0,HR-IXPWINDi_r2_v1.2.,2013-05-18 07:13:00,
2013-05-18 03:19:00,60.8,57.2,30.03,NNW,348,2.0,4.0,88,0.00,,,0.00,0,HR-IXPWINDi_r2_v1.2.,2013-05-18 07:19:00,
2013-05-18 03:24:00,60.8,57.2,30.03,ESE,116,0.0,4.0,88,0.00,,,0.00,0,HR-IXPWINDi_r2_v1.2.,2013-05-18 07:24:00,
2013-05-18 03:29:00,60.7,57.1,30.03,ESE,116,0.0,4.0,88,0.00,,,0.00,0,HR-IXPWINDi_r2_v1.2.,2013-05-18 07:29:00,
2013-05-18 03:34:00,60.4,56.8,30.03,ESE,116,0.0,4.0,88,0.00,,,0.00,0,HR-IXPWINDi_r2_v1.2.,2013-05-18 07:34:00,
2013-05-18 03:39:00,60.2,56.9,30.03,ESE,116,0.0,4.0,89,0.00,,,0.00,0,HR-IXPWINDi_r2_v1.2.,2013-05-18 07:39:00,
2013-05-18 03:44:00,60.4,57.1,30.03,ESE,116,0.0,2.0,89,0.00,,,0.00,0,HR-IXPWINDi_r2_v1.2.,2013-05-18 07:44:00,
2013-05-18 03:49:00,60.9,57.3,30.03,ESE,116,0.0,2.0,88,0.00,,,0.00,0,HR-IXPWINDi_r2_v1.2.,2013-05-18 07:49:00,
2013-05-18 03:55:00,61.1,57.5,30.03,ESE,116,0.0,2.0,88,0.00,,,0.00,0,HR-IXPWINDi_r2_v1.2.,2013-05-18 07:55:00,
2013-05-18 04:00:00,61.2,57.5,30.03,ESE,116,0.0,2.0,88,0.00,,,0.00,0,HR-IXPWINDi_r2_v1.2.,2013-05-18 08:00:00,
2013-05-18 04:05:00,61.3,57.6,30.03,ESE,116,1.0,2.0,88,0.00,,,0.00,0,HR-IXPWINDi_r2_v1.2.,2013-05-18 08:05:00,
2013-05-18 04:11:00,61.2,57.5,30.03,ESE,115,0.0,5.0,88,0.00,,,0.00,0,HR-IXPWINDi_r2_v1.2.,2013-05-18 08:11:00,
2013-05-18 04:16:00,61.2,57.9,30.03,NE,46,0.0,5.0,89,0.00,,,0.00,0,HR-IXPWINDi_r2_v1.2.,2013-05-18 08:16:00,
2013-05-18 04:21:00,61.3,57.6,30.03,ESE,116,0.0,5.0,88,0.00,,,0.00,0,HR-IXPWINDi_r2_v1.2.,2013-05-18 08:21:00,
2013-05-18 04:26:00,61.7,58.0,30.03,NNE,13,0.0,5.0,88,0.00,,,0.00,0,HR-IXPWINDi_r2_v1.2.,2013-05-18 08:26:00,
2013-05-18 04:31:00,62.0,58.3,30.03,NNE,13,0.0,4.0,88,0.00,,,0.00,0,HR-IXPWINDi_r2_v1.2.,2013-05-18 08:31:00,
2013-05-18 04:37:00,62.1,58.4,30.03,NNE,13,0.0,3.0,88,0.00,,,0.00,0,HR-IXPWINDi_r2_v1.2.,2013-05-18 08:37:00,
2013-05-18 04:42:00,62.2,58.5,30.03,NNE,13,1.0,3.0,88,0.00,,,0.00,0,HR-IXPWINDi_r2_v1.2.,2013-05-18 08:42:00,
2013-05-18 04:47:00,62.0,58.3,30.03,NNE,26,0.0,2.0,88,0.00,,,0.00,0,HR-IXPWINDi_r2_v1.2.,2013-05-18 08:47:00,
2013-05-18 04:52:00,62.2,58.9,30.03,NNE,26,0.0,2.0,89,0.00,,,0.00,0,HR-IXPWINDi_r2_v1.2.,2013-05-18 08:52:00,
2013-05-18 04:57:00,62.2,59.2,30.03,NNE,26,0.0,2.0,90,0.00,,,0.00,0,HR-IXPWINDi_r2_v1.2.,2013-05-18 08:57:00,
2013-05-18 05:02:00,61.6,58.6,30.03,NNE,26,0.0,1.0,90,0.00,,,0.00,0,HR-IXPWINDi_r2_v1.2.,2013-05-18 09:02:00,
2013-05-18 05:08:00,61.6,58.9,30.04,SSW,204,3.0,9.0,91,0.00,,,0.00,0,HR-IXPWINDi_r2_v1.2.,2013-05-18 09:08:00,
2013-05-18 05:13:00,61.7,59.3,30.04,North,5,2.0,9.0,92,0.00,,,0.00,0,HR-IXPWINDi_r2_v1.2.,2013-05-18 09:13:00,
2013-05-18 05:18:00,61.5,59.1,30.04,NNW,334,2.0,5.0,92,0.00,,,0.00,0,HR-IXPWINDi_r2_v1.2.,2013-05-18 09:18:00,
2013-05-18 05:23:00,61.3,59.2,30.04,NNW,334,0.0,5.0,93,0.00,,,0.00,0,HR-IXPWINDi_r2_v1.2.,2013-05-18 09:23:00,
2013-05-18 05:28:00,61.4,59.6,30.04,NNW,334,0.0,2.0,94,0.00,,,0.00,0,HR-IXPWINDi_r2_v1.2.,2013-05-18 09:28:00,
2013-05-18 05:34:00,61.3,59.5,30.05,NE,49,1.0,1.0,94,0.00,,,0.00,0,HR-IXPWINDi_r2_v1.2.,2013-05-18 09:34:00,
2013-05-18 05:39:00,61.3,59.5,30.04,NE,53,0.0,1.0,94,0.00,,,0.00,0,HR-IXPWINDi_r2_v1.2.,2013-05-18 09:39:00,
2013-05-18 05:44:00,61.2,59.7,30.05,NE,53,0.0,1.0,95,0.00,,,0.00,0,HR-IXPWINDi_r2_v1.2.,2013-05-18 09:44:00,
2013-05-18 05:49:00,61.2,59.7,30.05,NE,53,0.0,1.0,95,0.00,,,0.00,0,HR-IXPWINDi_r2_v1.2.,2013-05-18 09:49:00,
2013-05-18 05:55:00,61.4,59.9,30.05,NE,53,0.0,1.0,95,0.00,,,0.00,0,HR-IXPWINDi_r2_v1.2.,2013-05-18 09:55:00,
2013-05-18 06:00:00,61.3,59.8,30.05,SE,134,0.0,1.0,95,0.00,,,0.00,0,HR-IXPWINDi_r2_v1.2.,2013-05-18 10:00:00,
2013-05-18 06:05:00,61.1,59.6,30.05,SE,134,0.0,2.0,95,0.00,,,0.00,0,HR-IXPWINDi_r2_v1.2.,2013-05-18 10:05:00,
2013-05-18 06:10:00,61.3,59.8,30.04,NNW,342,3.0,4.0,95,0.00,,,0.00,0,HR-IXPWINDi_r2_v1.2.,2013-05-18 10:10:00,
2013-05-18 06:16:00,61.5,60.0,30.05,NNE,24,1.0,4.0,95,0.00,,,0.00,0,HR-IXPWINDi_r2_v1.2.,2013-05-18 10:16:00,
2013-05-18 06:21:00,61.6,60.1,30.05,North,5,3.0,5.0,95,0.00,,,0.00,0,HR-IXPWINDi_r2_v1.2.,2013-05-18 10:21:00,
2013-05-18 06:26:00,61.7,60.2,30.05,NE,49,2.0,5.0,95,0.00,,,0.00,0,HR-IXPWINDi_r2_v1.2.,2013-05-18 10:26:00,
2013-05-18 06:32:00,62.0,60.5,30.05,ENE,58,0.0,5.0,95,0.00,,,0.00,0,HR-IXPWINDi_r2_v1.2.,2013-05-18 10:32:00,
2013-05-18 06:37:00,61.9,60.4,30.05,NNE,22,3.0,3.0,95,0.00,,,0.00,0,HR-IXPWINDi_r2_v1.2.,2013-05-18 10:37:00,
2013-05-18 06:42:00,61.8,60.3,30.05,North,5,0.0,4.0,95,0.00,,,0.00,0,HR-IXPWINDi_r2_v1.2.,2013-05-18 10:42:00,
2013-05-18 06:47:00,61.6,60.1,30.05,NNE,20,0.0,4.0,95,0.00,,,0.00,5,HR-IXPWINDi_r2_v1.2.,2013-05-18 10:47:00,
2013-05-18 06:52:00,61.4,59.9,30.06,NNE,20,0.0,1.0,95,0.00,,,0.00,0,HR-IXPWINDi_r2_v1.2.,2013-05-18 10:52:00,
2013-05-18 06:58:00,61.3,59.8,30.06,NNE,20,0.0,3.0,95,0.00,,,0.00,0,HR-IXPWINDi_r2_v1.2.,2013-05-18 10:58:00,
2013-05-18 07:03:00,61.5,60.3,30.06,NNE,20,0.0,3.0,96,0.00,,,0.00,0,HR-IXPWINDi_r2_v1.2.,2013-05-18 11:03:00,
2013-05-18 07:08:00,61.5,60.3,30.06,NNE,20,0.0,1.0,96,0.00,,,0.00,5,HR-IXPWINDi_r2_v1.2.,2013-05-18 11:08:00,
2013-05-18 07:13:00,61.5,60.3,30.06,NNE,20,0.0,1.0,96,0.00,,,0.00,5,HR-IXPWINDi_r2_v1.2.,2013-05-18 11:13:00,
2013-05-18 07:18:00,61.5,60.3,30.06,SE,129,0.0,4.0,96,0.00,,,0.00,5,HR-IXPWINDi_r2_v1.2.,2013-05-18 11:18:00,
2013-05-18 07:24:00,61.6,60.4,30.06,SE,128,1.0,4.0,96,0.00,,,0.00,5,HR-IXPWINDi_r2_v1.2.,2013-05-18 11:24:00,
2013-05-18 07:29:00,61.6,60.4,30.06,SE,124,0.0,2.0,96,0.00,,,0.00,7,HR-IXPWINDi_r2_v1.2.,2013-05-18 11:29:00,
2013-05-18 07:34:00,61.6,60.4,30.06,SE,124,0.0,2.0,96,0.00,,,0.00,11,HR-IXPWINDi_r2_v1.2.,2013-05-18 11:34:00,
2013-05-18 07:39:00,61.8,60.6,30.07,NNE,18,0.0,4.0,96,0.00,,,0.00,12,HR-IXPWINDi_r2_v1.2.,2013-05-18 11:39:00,
2013-05-18 07:44:00,62.1,60.9,30.07,SE,135,0.0,9.0,96,0.00,,,0.00,12,HR-IXPWINDi_r2_v1.2.,2013-05-18 11:44:00,
2013-05-18 07:50:00,62.5,61.0,30.07,East,88,0.0,9.0,95,0.00,,,0.00,16,HR-IXPWINDi_r2_v1.2.,2013-05-18 11:50:00,
2013-05-18 07:55:00,62.7,60.9,30.07,SE,142,1.0,6.0,94,0.00,,,0.00,19,HR-IXPWINDi_r2_v1.2.,2013-05-18 11:55:00,
2013-05-18 08:00:00,62.9,61.1,30.07,SE,142,1.0,10.0,94,0.00,,,0.00,25,HR-IXPWINDi_r2_v1.2.,2013-05-18 12:00:00,
2013-05-18 08:05:00,63.2,61.1,30.07,North,355,0.0,10.0,93,0.00,,,0.00,25,HR-IXPWINDi_r2_v1.2.,2013-05-18 12:05:00,
2013-05-18 08:10:00,63.0,60.9,30.07,NNW,344,0.0,5.0,93,0.00,,,0.00,23,HR-IXPWINDi_r2_v1.2.,2013-05-18 12:10:00,
2013-05-18 08:15:00,62.6,60.8,30.07,North,11,3.0,3.0,94,0.00,,,0.00,19,HR-IXPWINDi_r2_v1.2.,2013-05-18 12:15:00,
2013-05-18 08:20:00,62.3,60.5,30.07,East,84,0.0,4.0,94,0.00,,,0.00,19,HR-IXPWINDi_r2_v1.2.,2013-05-18 12:20:00,
2013-05-18 08:25:00,62.2,60.4,30.07,SE,129,2.0,5.0,94,0.00,,,0.00,23,HR-IXPWINDi_r2_v1.2.,2013-05-18 12:25:00,
2013-05-18 08:31:00,62.3,60.2,30.07,NE,42,3.0,6.0,93,0.00,,,0.00,28,HR-IXPWINDi_r2_v1.2.,2013-05-18 12:31:00,
2013-05-18 08:36:00,62.7,60.3,30.06,North,349,4.0,6.0,92,0.00,,,0.00,39,HR-IXPWINDi_r2_v1.2.,2013-05-18 12:36:00,
2013-05-18 08:41:00,62.4,60.0,30.06,NNE,33,1.0,5.0,92,0.00,,,0.00,49,HR-IXPWINDi_r2_v1.2.,2013-05-18 12:41:00,
2013-05-18 08:47:00,62.1,59.7,30.06,ENE,74,1.0,5.0,92,0.00,,,0.00,49,HR-IXPWINDi_r2_v1.2.,2013-05-18 12:47:00,
2013-05-18 08:52:00,62.3,59.9,30.06,ENE,62,2.0,6.0,92,0.00,,,0.00,44,HR-IXPWINDi_r2_v1.2.,2013-05-18 12:52:00,
2013-05-18 08:57:00,62.3,59.6,30.06,ENE,77,2.0,6.0,91,0.00,,,0.00,47,HR-IXPWINDi_r2_v1.2.,2013-05-18 12:57:00,
2013-05-18 09:02:00,62.3,59.9,30.06,East,85,0.0,5.0,92,0.00,,,0.00,56,HR-IXPWINDi_r2_v1.2.,2013-05-18 13:02:00,
2013-05-18 09:08:00,62.3,59.9,30.06,East,81,1.0,5.0,92,0.00,,,0.00,56,HR-IXPWINDi_r2_v1.2.,2013-05-18 13:08:00,
2013-05-18 09:13:00,62.1,60.0,30.06,ENE,76,0.0,4.0,93,0.00,,,0.00,63,HR-IXPWINDi_r2_v1.2.,2013-05-18 13:13:00,
2013-05-18 09:18:00,62.2,60.1,30.06,ENE,61,0.0,3.0,93,0.00,,,0.00,62,HR-IXPWINDi_r2_v1.2.,2013-05-18 13:18:00,
2013-05-18 09:23:00,62.3,60.2,30.06,SSE,152,4.0,6.0,93,0.00,,,0.00,70,HR-IXPWINDi_r2_v1.2.,2013-05-18 13:23:00,
2013-05-18 09:28:00,62.9,60.5,30.06,SE,138,0.0,8.0,92,0.00,,,0.00,76,HR-IXPWINDi_r2_v1.2.,2013-05-18 13:28:00,
2013-05-18 09:33:00,62.9,60.5,30.07,ENE,64,0.0,8.0,92,0.00,,,0.00,70,HR-IXPWINDi_r2_v1.2.,2013-05-18 13:33:00,
2013-05-18 09:38:00,63.2,60.8,30.07,SE,132,0.0,5.0,92,0.00,,,0.00,60,HR-IXPWINDi_r2_v1.2.,2013-05-18 13:38:00,
2013-05-18 09:44:00,63.1,61.0,30.07,ESE,113,2.0,5.0,93,0.00,,,0.00,63,HR-IXPWINDi_r2_v1.2.,2013-05-18 13:44:00,
2013-05-18 09:49:00,63.2,60.8,30.07,SE,130,1.0,5.0,92,0.00,,,0.00,51,HR-IXPWINDi_r2_v1.2.,2013-05-18 13:49:00,
2013-05-18 09:54:00,63.2,60.8,30.07,ESE,119,0.0,5.0,92,0.00,,,0.00,53,HR-IXPWINDi_r2_v1.2.,2013-05-18 13:54:00,
2013-05-18 09:59:00,63.0,60.9,30.07,ESE,119,1.0,5.0,93,0.00,,,0.00,56,HR-IXPWINDi_r2_v1.2.,2013-05-18 13:59:00,
2013-05-18 10:04:00,62.6,60.8,30.07,NNE,16,0.0,4.0,94,0.00,,,0.00,47,HR-IXPWINDi_r2_v1.2.,2013-05-18 14:04:00,
2013-05-18 10:09:00,62.5,60.7,30.07,NNW,347,3.0,5.0,94,0.00,,,0.00,54,HR-IXPWINDi_r2_v1.2.,2013-05-18 14:09:00,
2013-05-18 10:14:00,62.6,60.8,30.07,NNW,345,1.0,5.0,94,0.00,,,0.00,63,HR-IXPWINDi_r2_v1.2.,2013-05-18 14:14:00,
2013-05-18 10:20:00,62.6,60.8,30.06,North,350,2.0,4.0,94,0.00,,,0.00,65,HR-IXPWINDi_r2_v1.2.,2013-05-18 14:20:00,
2013-05-18 10:25:00,62.8,61.3,30.07,NE,34,0.0,4.0,95,0.00,,,0.00,72,HR-IXPWINDi_r2_v1.2.,2013-05-18 14:25:00,
2013-05-18 10:30:00,63.0,61.2,30.07,NNE,13,2.0,3.0,94,0.00,,,0.01,90,HR-IXPWINDi_r2_v1.2.,2013-05-18 14:30:00,
2013-05-18 10:35:00,63.1,61.3,30.06,East,92,4.0,4.0,94,0.00,,,0.01,97,HR-IXPWINDi_r2_v1.2.,2013-05-18 14:35:00,
2013-05-18 10:40:00,63.4,61.3,30.07,ESE,112,0.0,6.0,93,0.00,,,0.01,105,HR-IXPWINDi_r2_v1.2.,2013-05-18 14:40:00,
2013-05-18 10:46:00,63.7,61.3,30.07,ESE,117,0.0,7.0,92,0.00,,,0.01,111,HR-IXPWINDi_r2_v1.2.,2013-05-18 14:46:00,
2013-05-18 10:51:00,63.6,61.2,30.07,NW,320,3.0,7.0,92,0.00,,,0.01,123,HR-IXPWINDi_r2_v1.2.,2013-05-18 14:51:00,
2013-05-18 10:56:00,63.3,61.2,30.06,NNW,331,0.0,6.0,93,0.00,,,0.01,155,HR-IXPWINDi_r2_v1.2.,2013-05-18 14:56:00,
2013-05-18 11:01:00,63.4,61.3,30.07,North,360,4.0,6.0,93,0.00,,,0.01,165,HR-IXPWINDi_r2_v1.2.,2013-05-18 15:01:00,
2013-05-18 11:07:00,63.9,61.8,30.07,NNW,334,1.0,5.0,93,0.00,,,0.01,197,HR-IXPWINDi_r2_v1.2.,2013-05-18 15:07:00,
2013-05-18 11:12:00,64.5,61.7,30.07,SE,128,11.0,11.0,91,0.00,,,0.01,223,HR-IXPWINDi_r2_v1.2.,2013-05-18 15:12:00,
2013-05-18 11:17:00,65.0,61.9,30.07,SE,128,7.0,14.0,90,0.00,,,0.01,220,HR-IXPWINDi_r2_v1.2.,2013-05-18 15:17:00,
2013-05-18 11:22:00,65.0,61.3,30.07,SE,136,1.0,14.0,88,0.00,,,0.01,199,HR-IXPWINDi_r2_v1.2.,2013-05-18 15:22:00,
2013-05-18 11:28:00,65.1,61.4,30.07,East,101,4.0,13.0,88,0.00,,,0.01,181,HR-IXPWINDi_r2_v1.2.,2013-05-18 15:28:00,
2013-05-18 11:33:00,65.1,61.4,30.06,ESE,123,6.0,11.0,88,0.00,,,0.01,172,HR-IXPWINDi_r2_v1.2.,2013-05-18 15:33:00,
2013-05-18 11:38:00,65.2,61.8,30.06,ENE,67,0.0,11.0,89,0.00,,,0.01,144,HR-IXPWINDi_r2_v1.2.,2013-05-18 15:38:00,
2013-05-18 11:43:00,65.2,61.8,30.06,NNE,33,1.0,9.0,89,0.00,,,0.01,120,HR-IXPWINDi_r2_v1.2.,2013-05-18 15:43:00,
2013-05-18 11:48:00,64.8,61.7,30.06,NNW,345,4.0,6.0,90,0.00,,,0.01,113,HR-IXPWINDi_r2_v1.2.,2013-05-18 15:48:00,
2013-05-18 11:53:00,64.8,61.4,30.06,North,5,5.0,6.0,89,0.00,,,0.01,123,HR-IXPWINDi_r2_v1.2.,2013-05-18 15:53:00,
2013-05-18 11:58:00,64.9,61.5,30.06,NE,36,2.0,9.0,89,0.00,,,0.01,141,HR-IXPWINDi_r2_v1.2.,2013-05-18 15:58:00,
2013-05-18 12:04:00,64.9,61.2,30.06,SE,128,1.0,9.0,88,0.00,,,0.01,171,HR-IXPWINDi_r2_v1.2.,2013-05-18 16:04:00,
2013-05-18 12:09:00,64.8,61.7,30.06,SE,134,2.0,9.0,90,0.00,,,0.01,190,HR-IXPWINDi_r2_v1.2.,2013-05-18 16:09:00,
2013-05-18 12:14:00,65.3,61.6,30.06,NNE,30,2.0,9.0,88,0.00,,,0.01,195,HR-IXPWINDi_r2_v1.2.,2013-05-18 16:14:00,
2013-05-18 12:19:00,65.4,61.7,30.06,NNE,33,2.0,7.0,88,0.00,,,0.01,178,HR-IXPWINDi_r2_v1.2.,2013-05-18 16:19:00,
2013-05-18 12:24:00,65.4,61.0,30.06,ESE,103,4.0,7.0,86,0.00,,,0.01,174,HR-IXPWINDi_r2_v1.2.,2013-05-18 16:24:00,
2013-05-18 12:30:00,65.7,61.7,30.06,ENE,76,0.0,10.0,87,0.00,,,0.01,162,HR-IXPWINDi_r2_v1.2.,2013-05-18 16:30:00,
2013-05-18 12:35:00,65.8,61.4,30.06,North,360,1.0,11.0,86,0.00,,,0.01,190,HR-IXPWINDi_r2_v1.2.,2013-05-18 16:35:00,
2013-05-18 12:40:00,65.7,61.3,30.06,SE,132,2.0,11.0,86,0.00,,,0.01,165,HR-IXPWINDi_r2_v1.2.,2013-05-18 16:40:00,
2013-05-18 12:45:00,65.7,61.3,30.05,East,98,1.0,11.0,86,0.00,,,0.01,167,HR-IXPWINDi_r2_v1.2.,2013-05-18 16:45:00,
2013-05-18 12:50:00,65.6,61.2,30.05,East,94,6.0,9.0,86,0.00,,,0.01,151,HR-IXPWINDi_r2_v1.2.,2013-05-18 16:50:00,
2013-05-18 12:56:00,65.6,61.2,30.06,ESE,108,5.0,12.0,86,0.00,,,0.01,155,HR-IXPWINDi_r2_v1.2.,2013-05-18 16:56:00,
2013-05-18 13:01:00,65.6,61.2,30.05,SSE,148,4.0,12.0,86,0.00,,,0.01,151,HR-IXPWINDi_r2_v1.2.,2013-05-18 17:01:00,
2013-05-18 13:06:00,65.5,61.1,30.06,SSE,167,5.0,11.0,86,0.00,,,0.01,162,HR-IXPWINDi_r2_v1.2.,2013-05-18 17:06:00,
2013-05-18 13:11:00,65.4,61.0,30.06,SSE,157,4.0,11.0,86,0.00,,,0.01,163,HR-IXPWINDi_r2_v1.2.,2013-05-18 17:11:00,
2013-05-18 13:16:00,65.6,61.6,30.05,SE,146,2.0,11.0,87,0.00,,,0.01,158,HR-IXPWINDi_r2_v1.2.,2013-05-18 17:16:00,
2013-05-18 13:22:00,65.5,61.1,30.05,SSE,164,0.0,5.0,86,0.00,,,0.01,141,HR-IXPWINDi_r2_v1.2.,2013-05-18 17:22:00,
2013-05-18 13:27:00,65.6,60.9,30.05,SE,135,4.0,6.0,85,0.00,,,0.01,118,HR-IXPWINDi_r2_v1.2.,2013-05-18 17:27:00,
2013-05-18 13:32:00,65.6,60.6,30.05,South,178,5.0,7.0,84,0.00,,,0.01,125,HR-IXPWINDi_r2_v1.2.,2013-05-18 17:32:00,
2013-05-18 13:37:00,65.8,61.1,30.05,ESE,112,0.0,7.0,85,0.00,,,0.01,172,HR-IXPWINDi_r2_v1.2.,2013-05-18 17:37:00,
2013-05-18 13:42:00,66.0,61.0,30.05,SSE,148,6.0,9.0,84,0.00,,,0.01,260,HR-IXPWINDi_r2_v1.2.,2013-05-18 17:42:00,
2013-05-18 13:47:00,66.2,61.2,30.05,SSW,195,3.0,9.0,84,0.00,,,0.01,448,HR-IXPWINDi_r2_v1.2.,2013-05-18 17:47:00,
2013-05-18 13:52:00,66.8,61.7,30.04,ESE,123,6.0,16.0,84,0.00,,,0.01,513,HR-IXPWINDi_r2_v1.2.,2013-05-18 17:52:00,
2013-05-18 13:58:00,67.0,61.9,30.04,ESE,121,1.0,16.0,84,0.00,,,0.01,369,HR-IXPWINDi_r2_v1.2.,2013-05-18 17:58:00,
2013-05-18 14:03:00,67.2,61.5,30.04,ESE,103,8.0,16.0,82,0.00,,,0.01,628,HR-IXPWINDi_r2_v1.2.,2013-05-18 18:03:00,
2013-05-18 14:08:00,67.5,61.7,30.04,ESE,105,6.0,16.0,82,0.00,,,0.01,434,HR-IXPWINDi_r2_v1.2.,2013-05-18 18:08:00,
2013-05-18 14:13:00,67.7,61.9,30.04,SE,139,11.0,13.0,82,0.00,,,0.01,359,HR-IXPWINDi_r2_v1.2.,2013-05-18 18:13:00,
2013-05-18 14:19:00,67.7,61.2,30.04,SE,140,1.0,12.0,80,0.00,,,0.01,311,HR-IXPWINDi_r2_v1.2.,2013-05-18 18:19:00,
2013-05-18 14:24:00,67.6,61.8,30.04,SE,125,8.0,13.0,82,0.00,,,0.01,246,HR-IXPWINDi_r2_v1.2.,2013-05-18 18:24:00,
2013-05-18 14:29:00,67.7,61.9,30.04,ESE,106,5.0,13.0,82,0.00,,,0.01,248,HR-IXPWINDi_r2_v1.2.,2013-05-18 18:29:00,
2013-05-18 14:34:00,67.7,61.9,30.03,SE,130,4.0,13.0,82,0.00,,,0.01,255,HR-IXPWINDi_r2_v1.2.,2013-05-18 18:34:00,
2013-05-18 14:39:00,67.7,61.9,30.03,ESE,123,4.0,8.0,82,0.00,,,0.01,250,HR-IXPWINDi_r2_v1.2.,2013-05-18 18:39:00,
2013-05-18 14:44:00,67.6,61.8,30.04,ESE,109,2.0,11.0,82,0.00,,,0.01,197,HR-IXPWINDi_r2_v1.2.,2013-05-18 18:44:00,
2013-05-18 14:49:00,67.4,61.6,30.03,ESE,118,5.0,11.0,82,0.00,,,0.01,141,HR-IXPWINDi_r2_v1.2.,2013-05-18 18:49:00,
2013-05-18 14:55:00,67.4,61.6,30.04,SW,221,4.0,9.0,82,0.00,,,0.01,111,HR-IXPWINDi_r2_v1.2.,2013-05-18 18:55:00,
2013-05-18 15:00:00,67.2,61.8,30.04,SE,143,0.0,8.0,83,0.00,,,0.01,97,HR-IXPWINDi_r2_v1.2.,2013-05-18 19:00:00,
2013-05-18 15:05:00,67.4,61.6,30.04,SSE,165,0.0,8.0,82,0.00,,,0.01,81,HR-IXPWINDi_r2_v1.2.,2013-05-18 19:05:00,
2013-05-18 15:10:00,67.1,61.4,30.03,South,177,8.0,10.0,82,0.00,,,0.01,77,HR-IXPWINDi_r2_v1.2.,2013-05-18 19:10:00,
2013-05-18 15:16:00,66.9,61.5,30.04,SE,134,5.0,10.0,83,0.00,,,0.01,69,HR-IXPWINDi_r2_v1.2.,2013-05-18 19:16:00,
2013-05-18 15:21:00,66.8,61.4,30.03,SSW,209,0.0,9.0,83,0.00,,,0.01,69,HR-IXPWINDi_r2_v1.2.,2013-05-18 19:21:00,
2013-05-18 15:26:00,66.6,61.2,30.03,South,182,3.0,8.0,83,0.00,,,0.01,65,HR-IXPWINDi_r2_v1.2.,2013-05-18 19:26:00,
2013-05-18 15:31:00,66.5,61.1,30.03,SE,146,2.0,8.0,83,0.00,,,0.01,69,HR-IXPWINDi_r2_v1.2.,2013-05-18 19:31:00,
2013-05-18 15:36:00,66.5,61.5,30.03,ESE,115,0.0,8.0,84,0.00,,,0.01,70,HR-IXPWINDi_r2_v1.2.,2013-05-18 19:36:00,
2013-05-18 15:41:00,66.8,61.7,30.04,ESE,108,0.0,8.0,84,0.00,,,0.01,83,HR-IXPWINDi_r2_v1.2.,2013-05-18 19:41:00,
2013-05-18 15:47:00,66.6,61.5,30.03,ESE,109,5.0,7.0,84,0.00,,,0.01,105,HR-IXPWINDi_r2_v1.2.,2013-05-18 19:47:00,
2013-05-18 15:52:00,66.7,61.6,30.03,ESE,103,1.0,7.0,84,0.00,,,0.01,146,HR-IXPWINDi_r2_v1.2.,2013-05-18 19:52:00,
2013-05-18 15:57:00,67.0,61.9,30.03,ESE,108,4.0,6.0,84,0.00,,,0.01,190,HR-IXPWINDi_r2_v1.2.,2013-05-18 19:57:00,
2013-05-18 16:02:00,67.2,61.5,30.03,East,98,1.0,6.0,82,0.00,,,0.01,232,HR-IXPWINDi_r2_v1.2.,2013-05-18 20:02:00,
2013-05-18 16:07:00,67.7,62.3,30.03,ESE,107,2.0,7.0,83,0.00,,,0.01,220,HR-IXPWINDi_r2_v1.2.,2013-05-18 20:07:00,
2013-05-18 16:12:00,67.9,61.8,30.03,ESE,103,5.0,7.0,81,0.00,,,0.01,213,HR-IXPWINDi_r2_v1.2.,2013-05-18 20:12:00,
2013-05-18 16:17:00,68.3,62.2,30.03,ESE,115,1.0,7.0,81,0.00,,,0.01,269,HR-IXPWINDi_r2_v1.2.,2013-05-18 20:17:00,
2013-05-18 16:22:00,68.4,61.9,30.03,ENE,69,2.0,7.0,80,0.00,,,0.01,206,HR-IXPWINDi_r2_v1.2.,2013-05-18 20:22:00,
2013-05-18 16:27:00,68.4,61.9,30.02,SE,129,9.0,11.0,80,0.00,,,0.01,216,HR-IXPWINDi_r2_v1.2.,2013-05-18 20:27:00,
2013-05-18 16:32:00,68.3,62.2,30.02,WSW,250,0.0,11.0,81,0.00,,,0.01,216,HR-IXPWINDi_r2_v1.2.,2013-05-18 20:32:00,
2013-05-18 16:37:00,67.9,61.8,30.02,SSW,192,1.0,11.0,81,0.00,,,0.01,230,HR-IXPWINDi_r2_v1.2.,2013-05-18 20:37:00,
2013-05-18 16:43:00,68.1,62.3,30.02,SSE,157,2.0,14.0,82,0.00,,,0.01,237,HR-IXPWINDi_r2_v1.2.,2013-05-18 20:43:00,
2013-05-18 16:48:00,68.0,61.9,30.02,ESE,119,4.0,14.0,81,0.00,,,0.01,248,HR-IXPWINDi_r2_v1.2.,2013-05-18 20:48:00,
2013-05-18 16:53:00,67.9,62.1,30.02,SE,136,2.0,12.0,82,0.00,,,0.01,234,HR-IXPWINDi_r2_v1.2.,2013-05-18 20:53:00,
2013-05-18 16:58:00,68.4,62.3,30.02,ESE,121,5.0,9.0,81,0.00,,,0.01,188,HR-IXPWINDi_r2_v1.2.,2013-05-18 20:58:00,
2013-05-18 17:04:00,67.9,61.8,30.02,SSE,152,5.0,10.0,81,0.00,,,0.01,155,HR-IXPWINDi_r2_v1.2.,2013-05-18 21:04:00,
2013-05-18 17:09:00,67.5,61.7,30.02,ESE,121,6.0,14.0,82,0.00,,,0.01,216,HR-IXPWINDi_r2_v1.2.,2013-05-18 21:09:00,
2013-05-18 17:14:00,67.6,62.2,30.02,SSE,148,4.0,14.0,83,0.00,,,0.01,186,HR-IXPWINDi_r2_v1.2.,2013-05-18 21:14:00,
2013-05-18 17:19:00,67.5,62.1,30.02,SE,126,5.0,13.0,83,0.00,,,0.01,178,HR-IXPWINDi_r2_v1.2.,2013-05-18 21:19:00,
2013-05-18 17:24:00,67.7,62.3,30.02,SE,134,2.0,13.0,83,0.00,,,0.01,239,HR-IXPWINDi_r2_v1.2.,2013-05-18 21:24:00,
2013-05-18 17:29:00,67.9,62.1,30.02,South,182,6.0,11.0,82,0.00,,,0.01,207,HR-IXPWINDi_r2_v1.2.,2013-05-18 21:29:00,
2013-05-18 17:34:00,67.9,62.1,30.02,ESE,107,7.0,11.0,82,0.00,,,0.01,197,HR-IXPWINDi_r2_v1.2.,2013-05-18 21:34:00,
2013-05-18 17:39:00,67.7,62.3,30.02,South,169,1.0,12.0,83,0.00,,,0.01,188,HR-IXPWINDi_r2_v1.2.,2013-05-18 21:39:00,
2013-05-18 17:44:00,67.8,62.4,30.02,SE,125,5.0,12.0,83,0.00,,,0.01,165,HR-IXPWINDi_r2_v1.2.,2013-05-18 21:44:00,
2013-05-18 17:49:00,67.9,62.1,30.02,SE,145,8.0,10.0,82,0.00,,,0.01,121,HR-IXPWINDi_r2_v1.2.,2013-05-18 21:49:00,
2013-05-18 17:54:00,67.9,62.1,30.02,SE,132,4.0,9.0,82,0.00,,,0.01,121,HR-IXPWINDi_r2_v1.2.,2013-05-18 21:54:00,
2013-05-18 18:00:00,67.9,62.5,30.02,NNE,18,1.0,8.0,83,0.00,,,0.01,179,HR-IXPWINDi_r2_v1.2.,2013-05-18 22:00:00,
2013-05-18 18:05:00,68.0,62.2,30.02,SE,136,4.0,8.0,82,0.00,,,0.01,105,HR-IXPWINDi_r2_v1.2.,2013-05-18 22:05:00,
2013-05-18 18:10:00,67.7,61.9,30.02,SE,129,0.0,11.0,82,0.00,,,0.01,65,HR-IXPWINDi_r2_v1.2.,2013-05-18 22:10:00,
2013-05-18 18:15:00,67.5,62.1,30.02,ESE,104,7.0,11.0,83,0.00,,,0.01,58,HR-IXPWINDi_r2_v1.2.,2013-05-18 22:15:00,
2013-05-18 18:20:00,67.4,62.0,30.02,East,79,1.0,8.0,83,0.00,,,0.01,63,HR-IXPWINDi_r2_v1.2.,2013-05-18 22:20:00,
2013-05-18 18:25:00,67.5,62.1,30.02,SE,138,2.0,8.0,83,0.00,,,0.01,56,HR-IXPWINDi_r2_v1.2.,2013-05-18 22:25:00,
2013-05-18 18:31:00,67.2,62.1,30.03,NNE,13,5.0,10.0,84,0.00,,,0.01,46,HR-IXPWINDi_r2_v1.2.,2013-05-18 22:31:00,
2013-05-18 18:36:00,67.3,62.2,30.03,North,9,2.0,10.0,84,0.00,,,0.01,33,HR-IXPWINDi_r2_v1.2.,2013-05-18 22:36:00,
2013-05-18 18:41:00,67.2,61.8,30.02,ESE,118,1.0,6.0,83,0.00,,,0.01,33,HR-IXPWINDi_r2_v1.2.,2013-05-18 22:41:00,
2013-05-18 18:46:00,67.2,61.8,30.03,ESE,117,4.0,8.0,83,0.00,,,0.01,30,HR-IXPWINDi_r2_v1.2.,2013-05-18 22:46:00,
2013-05-18 18:51:00,67.1,61.7,30.03,SE,133,0.0,8.0,83,0.00,,,0.01,26,HR-IXPWINDi_r2_v1.2.,2013-05-18 22:51:00,
2013-05-18 18:56:00,67.2,61.8,30.03,NNW,331,0.0,7.0,83,0.00,,,0.01,37,HR-IXPWINDi_r2_v1.2.,2013-05-18 22:56:00,
2013-05-18 19:02:00,67.2,61.8,30.03,SE,140,0.0,5.0,83,0.00,,,0.01,58,HR-IXPWINDi_r2_v1.2.,2013-05-18 23:02:00,
2013-05-18 19:07:00,67.2,61.8,30.03,NNW,344,2.0,7.0,83,0.00,,,0.01,51,HR-IXPWINDi_r2_v1.2.,2013-05-18 23:07:00,
2013-05-18 19:12:00,67.0,61.6,30.03,South,180,4.0,9.0,83,0.00,,,0.01,33,HR-IXPWINDi_r2_v1.2.,2013-05-18 23:12:00,
2013-05-18 19:17:00,67.1,61.7,30.03,North,355,4.0,9.0,83,0.00,,,0.01,30,HR-IXPWINDi_r2_v1.2.,2013-05-18 23:17:00,
2013-05-18 19:22:00,67.0,61.6,30.04,SE,128,0.0,6.0,83,0.00,,,0.01,32,HR-IXPWINDi_r2_v1.2.,2013-05-18 23:22:00,
2013-05-18 19:27:00,67.0,61.6,30.04,NE,46,3.0,6.0,83,0.00,,,0.01,28,HR-IXPWINDi_r2_v1.2.,2013-05-18 23:27:00,
2013-05-18 19:33:00,67.0,61.9,30.04,NNW,345,4.0,8.0,84,0.00,,,0.01,23,HR-IXPWINDi_r2_v1.2.,2013-05-18 23:33:00,
2013-05-18 19:38:00,66.7,61.6,30.04,NNE,16,3.0,8.0,84,0.00,,,0.01,21,HR-IXPWINDi_r2_v1.2.,2013-05-18 23:38:00,
2013-05-18 19:43:00,66.5,61.8,30.04,NNW,346,4.0,6.0,85,0.00,,,0.01,14,HR-IXPWINDi_r2_v1.2.,2013-05-18 23:43:00,
2013-05-18 19:48:00,66.4,61.7,30.04,NNW,345,1.0,6.0,85,0.00,,,0.01,12,HR-IXPWINDi_r2_v1.2.,2013-05-18 23:48:00,
2013-05-18 19:53:00,66.5,61.8,30.04,North,350,6.0,6.0,85,0.00,,,0.01,18,HR-IXPWINDi_r2_v1.2.,2013-05-18 23:53:00,
2013-05-18 19:59:00,66.3,61.6,30.04,NNE,32,4.0,7.0,85,0.00,,,0.01,16,HR-IXPWINDi_r2_v1.2.,2013-05-18 23:59:00,
2013-05-18 20:04:00,66.4,61.7,30.04,North,355,3.0,7.0,85,0.00,,,0.01,16,HR-IXPWINDi_r2_v1.2.,2013-05-19 00:04:00,
2013-05-18 20:09:00,66.4,61.7,30.04,NNE,30,0.0,6.0,85,0.00,,,0.01,12,HR-IXPWINDi_r2_v1.2.,2013-05-19 00:09:00,
2013-05-18 20:15:00,66.2,61.8,30.04,NNE,13,3.0,6.0,86,0.00,,,0.01,7,HR-IXPWINDi_r2_v1.2.,2013-05-19 00:15:00,
2013-05-18 20:20:00,66.0,61.6,30.04,North,5,0.0,5.0,86,0.00,,,0.01,5,HR-IXPWINDi_r2_v1.2.,2013-05-19 00:20:00,
2013-05-18 20:25:00,65.6,61.6,30.04,NNE,13,0.0,4.0,87,0.00,,,0.01,0,HR-IXPWINDi_r2_v1.2.,2013-05-19 00:25:00,
2013-05-18 20:30:00,65.6,61.6,30.04,NW,323,4.0,6.0,87,0.00,,,0.01,0,HR-IXPWINDi_r2_v1.2.,2013-05-19 00:30:00,
2013-05-18 20:36:00,65.6,61.2,30.04,North,350,0.0,6.0,86,0.00,,,0.01,0,HR-IXPWINDi_r2_v1.2.,2013-05-19 00:36:00,
2013-05-18 20:41:00,65.4,61.4,30.04,ENE,62,2.0,6.0,87,0.00,,,0.01,0,HR-IXPWINDi_r2_v1.2.,2013-05-19 00:41:00,
2013-05-18 20:46:00,65.9,61.5,30.04,ESE,111,1.0,6.0,86,0.00,,,0.01,0,HR-IXPWINDi_r2_v1.2.,2013-05-19 00:46:00,
2013-05-18 20:51:00,65.9,61.2,30.04,NNE,19,3.0,5.0,85,0.00,,,0.01,0,HR-IXPWINDi_r2_v1.2.,2013-05-19 00:51:00,
2013-05-18 20:57:00,65.6,61.2,30.04,North,5,4.0,5.0,86,0.00,,,0.01,0,HR-IXPWINDi_r2_v1.2.,2013-05-19 00:57:00,
2013-05-18 21:02:00,65.4,61.4,30.05,NNW,343,5.0,6.0,87,0.00,,,0.01,0,HR-IXPWINDi_r2_v1.2.,2013-05-19 01:02:00,
2013-05-18 21:07:00,65.3,61.3,30.05,NNW,347,2.0,6.0,87,0.00,,,0.01,0,HR-IXPWINDi_r2_v1.2.,2013-05-19 01:07:00,
2013-05-18 21:12:00,65.3,61.3,30.05,NNW,342,0.0,5.0,87,0.00,,,0.01,0,HR-IXPWINDi_r2_v1.2.,2013-05-19 01:12:00,
2013-05-18 21:17:00,65.6,61.2,30.05,SSE,147,0.0,5.0,86,0.00,,,0.01,0,HR-IXPWINDi_r2_v1.2.,2013-05-19 01:17:00,
2013-05-18 21:22:00,65.2,61.2,30.05,North,355,3.0,5.0,87,0.00,,,0.01,0,HR-IXPWINDi_r2_v1.2.,2013-05-19 01:22:00,
2013-05-18 21:27:00,65.3,61.3,30.05,NNW,331,5.0,5.0,87,0.00,,,0.01,0,HR-IXPWINDi_r2_v1.2.,2013-05-19 01:27:00,
2013-05-18 21:33:00,65.1,61.1,30.05,NNW,341,0.0,5.0,87,0.00,,,0.01,0,HR-IXPWINDi_r2_v1.2.,2013-05-19 01:33:00,
2013-05-18 21:38:00,64.9,60.9,30.05,NNW,336,0.0,6.0,87,0.00,,,0.01,0,HR-IXPWINDi_r2_v1.2.,2013-05-19 01:38:00,
2013-05-18 21:43:00,64.9,60.9,30.05,North,351,4.0,6.0,87,0.00,,,0.01,0,HR-IXPWINDi_r2_v1.2.,2013-05-19 01:43:00,
2013-05-18 21:48:00,65.0,61.0,30.05,NNW,331,3.0,4.0,87,0.00,,,0.01,0,HR-IXPWINDi_r2_v1.2.,2013-05-19 01:48:00,
2013-05-18 21:54:00,65.0,60.6,30.05,NNW,348,3.0,5.0,86,0.00,,,0.01,0,HR-IXPWINDi_r2_v1.2.,2013-05-19 01:54:00,
2013-05-18 21:59:00,65.3,60.6,30.05,North,355,1.0,5.0,85,0.00,,,0.01,0,HR-IXPWINDi_r2_v1.2.,2013-05-19 01:59:00,
2013-05-18 22:04:00,65.4,60.7,30.05,NNW,341,0.0,5.0,85,0.00,,,0.01,0,HR-IXPWINDi_r2_v1.2.,2013-05-19 02:04:00,
2013-05-18 22:09:00,64.8,60.8,30.05,NNW,346,2.0,6.0,87,0.00,,,0.01,0,HR-IXPWINDi_r2_v1.2.,2013-05-19 02:09:00,
2013-05-18 22:14:00,64.7,60.3,30.05,NE,40,3.0,6.0,86,0.00,,,0.01,0,HR-IXPWINDi_r2_v1.2.,2013-05-19 02:14:00,
2013-05-18 22:19:00,64.7,60.3,30.05,NNW,345,3.0,6.0,86,0.00,,,0.01,0,HR-IXPWINDi_r2_v1.2.,2013-05-19 02:19:00,
2013-05-18 22:25:00,64.6,60.6,30.05,North,5,3.0,6.0,87,0.00,,,0.01,0,HR-IXPWINDi_r2_v1.2.,2013-05-19 02:25:00,
2013-05-18 22:30:00,64.5,60.5,30.05,North,360,4.0,5.0,87,0.00,,,0.01,0,HR-IXPWINDi_r2_v1.2.,2013-05-19 02:30:00,
2013-05-18 22:35:00,64.4,60.1,30.05,North,355,4.0,5.0,86,0.00,,,0.01,0,HR-IXPWINDi_r2_v1.2.,2013-05-19 02:35:00,
2013-05-18 22:40:00,64.4,60.1,30.05,NNW,348,4.0,5.0,86,0.00,,,0.01,0,HR-IXPWINDi_r2_v1.2.,2013-05-19 02:40:00,
2013-05-18 22:46:00,64.4,60.1,30.05,NNW,348,4.0,7.0,86,0.00,,,0.01,0,HR-IXPWINDi_r2_v1.2.,2013-05-19 02:46:00,
2013-05-18 22:51:00,64.4,60.1,30.05,North,355,4.0,7.0,86,0.00,,,0.01,0,HR-IXPWINDi_r2_v1.2.,2013-05-19 02:51:00,
2013-05-18 22:56:00,64.5,60.2,30.05,North,355,3.0,6.0,86,0.00,,,0.01,0,HR-IXPWINDi_r2_v1.2.,2013-05-19 02:56:00,
2013-05-18 23:01:00,64.8,60.1,30.05,NNW,343,0.0,6.0,85,0.00,,,0.01,0,HR-IXPWINDi_r2_v1.2.,2013-05-19 03:01:00,
2013-05-18 23:06:00,64.7,60.0,30.05,North,5,3.0,5.0,85,0.00,,,0.01,0,HR-IXPWINDi_r2_v1.2.,2013-05-19 03:06:00,
2013-05-18 23:11:00,64.8,60.1,30.05,NNW,346,1.0,4.0,85,0.00,,,0.01,0,HR-IXPWINDi_r2_v1.2.,2013-05-19 03:11:00,
2013-05-18 23:16:00,64.8,60.1,30.05,NNW,337,0.0,5.0,85,0.00,,,0.01,0,HR-IXPWINDi_r2_v1.2.,2013-05-19 03:16:00,
2013-05-18 23:21:00,64.1,59.8,30.05,NNW,337,0.0,5.0,86,0.00,,,0.01,0,HR-IXPWINDi_r2_v1.2.,2013-05-19 03:21:00,
2013-05-18 23:27:00,64.0,60.0,30.05,NNW,344,3.0,4.0,87,0.00,,,0.01,0,HR-IXPWINDi_r2_v1.2.,2013-05-19 03:27:00,
2013-05-18 23:32:00,63.9,59.9,30.05,NNW,344,3.0,5.0,87,0.00,,,0.01,0,HR-IXPWINDi_r2_v1.2.,2013-05-19 03:32:00,
2013-05-18 23:37:00,63.8,60.1,30.05,NNW,344,2.0,5.0,88,0.00,,,0.01,0,HR-IXPWINDi_r2_v1.2.,2013-05-19 03:37:00,
2013-05-18 23:42:00,63.8,60.1,30.05,NNW,342,7.0,7.0,88,0.00,,,0.01,0,HR-IXPWINDi_r2_v1.2.,2013-05-19 03:42:00,
2013-05-18 23:47:00,64.3,60.3,30.05,SSE,157,1.0,11.0,87,0.00,,,0.01,0,HR-IXPWINDi_r2_v1.2.,2013-05-19 03:47:00,
2013-05-18 23:52:00,64.3,60.3,30.05,North,355,4.0,11.0,87,0.00,,,0.01,0,HR-IXPWINDi_r2_v1.2.,2013-05-19 03:52:00,
2013-05-18 23:58:00,64.2,60.2,30.06,North,355,2.0,4.0,87,0.00,,,0.01,0,HR-IXPWINDi_r2_v1.2.,2013-05-19 03:58:00,